sensor_id;sensor_type;location;lat;lon;timestamp;temperature;humidity
31975;DHT22;18500;43.618;1.474;2024-03-17T00:00:43;11.30;1.00
31975;DHT22;18500;43.618;1.474;2024-03-17T00:03:09;11.30;1.00
31975;DHT22;18500;43.618;1.474;2024-03-17T00:05:37;11.30;1.00
31975;DHT22;18500;43.618;1.474;2024-03-17T00:08:04;11.40;1.00
31975;DHT22;18500;43.618;1.474;2024-03-17T00:10:34;11.40;1.00
31975;DHT22;18500;43.618;1.474;2024-03-17T00:13:00;11.40;1.00
31975;DHT22;18500;43.618;1.474;2024-03-17T00:15:29;11.40;1.00
31975;DHT22;18500;43.618;1.474;2024-03-17T00:17:54;11.30;1.00
31975;DHT22;18500;43.618;1.474;2024-03-17T00:20:20;11.30;1.00
31975;DHT22;18500;43.618;1.474;2024-03-17T00:22:49;11.20;1.00
31975;DHT22;18500;43.618;1.474;2024-03-17T00:25:16;11.10;1.00
31975;DHT22;18500;43.618;1.474;2024-03-17T00:27:45;11.10;1.00
31975;DHT22;18500;43.618;1.474;2024-03-17T00:30:13;10.90;1.00
31975;DHT22;18500;43.618;1.474;2024-03-17T00:32:39;10.90;1.00
31975;DHT22;18500;43.618;1.474;2024-03-17T00:35:09;10.80;1.00
31975;DHT22;18500;43.618;1.474;2024-03-17T00:37:36;10.70;1.00
31975;DHT22;18500;43.618;1.474;2024-03-17T00:40:02;10.60;1.00
31975;DHT22;18500;43.618;1.474;2024-03-17T00:42:28;10.60;1.00
31975;DHT22;18500;43.618;1.474;2024-03-17T00:44:54;10.60;1.00
31975;DHT22;18500;43.618;1.474;2024-03-17T00:47:20;10.50;1.00
31975;DHT22;18500;43.618;1.474;2024-03-17T00:49:46;10.50;1.00
31975;DHT22;18500;43.618;1.474;2024-03-17T00:52:11;10.50;1.00
31975;DHT22;18500;43.618;1.474;2024-03-17T00:54:37;10.50;1.00
31975;DHT22;18500;43.618;1.474;2024-03-17T00:57:03;10.40;1.00
31975;DHT22;18500;43.618;1.474;2024-03-17T00:59:28;10.40;1.00
31975;DHT22;18500;43.618;1.474;2024-03-17T01:01:54;10.30;1.00
31975;DHT22;18500;43.618;1.474;2024-03-17T01:04:20;10.30;1.00
31975;DHT22;18500;43.618;1.474;2024-03-17T01:06:46;10.30;1.00
31975;DHT22;18500;43.618;1.474;2024-03-17T01:09:12;10.20;1.00
31975;DHT22;18500;43.618;1.474;2024-03-17T01:11:37;10.20;1.00
31975;DHT22;18500;43.618;1.474;2024-03-17T01:14:04;10.20;1.00
31975;DHT22;18500;43.618;1.474;2024-03-17T01:16:30;10.10;1.00
31975;DHT22;18500;43.618;1.474;2024-03-17T01:18:55;10.20;1.00
31975;DHT22;18500;43.618;1.474;2024-03-17T01:21:22;10.10;1.00
31975;DHT22;18500;43.618;1.474;2024-03-17T01:23:48;10.20;1.00
31975;DHT22;18500;43.618;1.474;2024-03-17T01:26:15;10.10;1.00
31975;DHT22;18500;43.618;1.474;2024-03-17T01:28:40;10.00;1.00
31975;DHT22;18500;43.618;1.474;2024-03-17T01:31:06;10.00;1.00
31975;DHT22;18500;43.618;1.474;2024-03-17T01:33:32;10.00;1.00
31975;DHT22;18500;43.618;1.474;2024-03-17T01:35:58;10.00;1.00
31975;DHT22;18500;43.618;1.474;2024-03-17T01:38:23;9.90;1.00
31975;DHT22;18500;43.618;1.474;2024-03-17T01:40:49;9.90;1.00
31975;DHT22;18500;43.618;1.474;2024-03-17T01:43:15;9.80;1.00
31975;DHT22;18500;43.618;1.474;2024-03-17T01:45:40;9.80;1.00
31975;DHT22;18500;43.618;1.474;2024-03-17T01:48:13;9.80;1.00
31975;DHT22;18500;43.618;1.474;2024-03-17T01:50:41;9.90;1.00
31975;DHT22;18500;43.618;1.474;2024-03-17T01:53:09;9.90;1.00
31975;DHT22;18500;43.618;1.474;2024-03-17T01:55:37;9.80;1.00
31975;DHT22;18500;43.618;1.474;2024-03-17T01:58:04;9.80;1.00
31975;DHT22;18500;43.618;1.474;2024-03-17T02:00:33;9.80;1.00
31975;DHT22;18500;43.618;1.474;2024-03-17T02:03:02;9.70;1.00
31975;DHT22;18500;43.618;1.474;2024-03-17T02:05:28;9.70;1.00
31975;DHT22;18500;43.618;1.474;2024-03-17T02:07:54;9.70;1.00
31975;DHT22;18500;43.618;1.474;2024-03-17T02:10:20;9.70;1.00
31975;DHT22;18500;43.618;1.474;2024-03-17T02:12:47;9.70;1.00
31975;DHT22;18500;43.618;1.474;2024-03-17T02:15:13;9.70;1.00
31975;DHT22;18500;43.618;1.474;2024-03-17T02:17:39;9.70;1.00
31975;DHT22;18500;43.618;1.474;2024-03-17T02:20:05;9.70;1.00
31975;DHT22;18500;43.618;1.474;2024-03-17T02:22:37;9.70;1.00
31975;DHT22;18500;43.618;1.474;2024-03-17T02:25:03;9.60;1.00
31975;DHT22;18500;43.618;1.474;2024-03-17T02:27:29;9.60;1.00
31975;DHT22;18500;43.618;1.474;2024-03-17T02:29:55;9.70;1.00
31975;DHT22;18500;43.618;1.474;2024-03-17T02:32:21;9.70;1.00
31975;DHT22;18500;43.618;1.474;2024-03-17T02:34:48;9.70;1.00
31975;DHT22;18500;43.618;1.474;2024-03-17T02:37:14;9.70;1.00
31975;DHT22;18500;43.618;1.474;2024-03-17T02:39:41;9.80;1.00
31975;DHT22;18500;43.618;1.474;2024-03-17T02:42:09;9.80;1.00
31975;DHT22;18500;43.618;1.474;2024-03-17T02:44:36;9.80;1.00
31975;DHT22;18500;43.618;1.474;2024-03-17T02:47:04;9.70;1.00
31975;DHT22;18500;43.618;1.474;2024-03-17T02:49:30;9.80;1.00
31975;DHT22;18500;43.618;1.474;2024-03-17T02:52:05;9.70;1.00
31975;DHT22;18500;43.618;1.474;2024-03-17T02:54:32;9.60;1.00
31975;DHT22;18500;43.618;1.474;2024-03-17T02:56:58;9.50;1.00
31975;DHT22;18500;43.618;1.474;2024-03-17T02:59:24;9.50;1.00
31975;DHT22;18500;43.618;1.474;2024-03-17T03:01:50;9.50;1.00
31975;DHT22;18500;43.618;1.474;2024-03-17T03:04:16;9.50;1.00
31975;DHT22;18500;43.618;1.474;2024-03-17T03:06:42;9.70;1.00
31975;DHT22;18500;43.618;1.474;2024-03-17T03:09:07;9.80;1.00
31975;DHT22;18500;43.618;1.474;2024-03-17T03:11:40;10.00;1.00
31975;DHT22;18500;43.618;1.474;2024-03-17T03:14:06;10.00;1.00
31975;DHT22;18500;43.618;1.474;2024-03-17T03:16:32;10.10;1.00
31975;DHT22;18500;43.618;1.474;2024-03-17T03:18:59;10.00;1.00
31975;DHT22;18500;43.618;1.474;2024-03-17T03:21:25;10.00;1.00
31975;DHT22;18500;43.618;1.474;2024-03-17T03:23:51;10.00;1.00
31975;DHT22;18500;43.618;1.474;2024-03-17T03:26:17;10.00;1.00
31975;DHT22;18500;43.618;1.474;2024-03-17T03:28:43;10.00;1.00
31975;DHT22;18500;43.618;1.474;2024-03-17T03:31:12;10.00;1.00
31975;DHT22;18500;43.618;1.474;2024-03-17T03:33:42;10.00;1.00
31975;DHT22;18500;43.618;1.474;2024-03-17T03:36:12;10.00;1.00
31975;DHT22;18500;43.618;1.474;2024-03-17T03:38:38;10.10;1.00
31975;DHT22;18500;43.618;1.474;2024-03-17T03:41:13;10.00;1.00
31975;DHT22;18500;43.618;1.474;2024-03-17T03:43:39;10.00;1.00
31975;DHT22;18500;43.618;1.474;2024-03-17T03:46:05;10.00;1.00
31975;DHT22;18500;43.618;1.474;2024-03-17T03:48:31;10.10;1.00
31975;DHT22;18500;43.618;1.474;2024-03-17T03:50:57;10.10;1.00
31975;DHT22;18500;43.618;1.474;2024-03-17T03:53:24;10.10;1.00
31975;DHT22;18500;43.618;1.474;2024-03-17T03:55:49;10.20;1.00
31975;DHT22;18500;43.618;1.474;2024-03-17T03:58:15;10.10;1.00
31975;DHT22;18500;43.618;1.474;2024-03-17T04:00:41;10.10;1.00
31975;DHT22;18500;43.618;1.474;2024-03-17T04:03:07;10.20;1.00
31975;DHT22;18500;43.618;1.474;2024-03-17T04:05:33;10.20;1.00
31975;DHT22;18500;43.618;1.474;2024-03-17T04:08:00;10.20;1.00
31975;DHT22;18500;43.618;1.474;2024-03-17T04:10:26;10.10;1.00
31975;DHT22;18500;43.618;1.474;2024-03-17T04:12:52;10.10;1.00
31975;DHT22;18500;43.618;1.474;2024-03-17T04:15:18;10.00;1.00
31975;DHT22;18500;43.618;1.474;2024-03-17T04:17:44;10.00;1.00
31975;DHT22;18500;43.618;1.474;2024-03-17T04:20:10;10.00;1.00
31975;DHT22;18500;43.618;1.474;2024-03-17T04:22:40;10.10;1.00
31975;DHT22;18500;43.618;1.474;2024-03-17T04:25:06;10.10;1.00
31975;DHT22;18500;43.618;1.474;2024-03-17T04:27:32;10.10;1.00
31975;DHT22;18500;43.618;1.474;2024-03-17T04:29:59;10.10;1.00
31975;DHT22;18500;43.618;1.474;2024-03-17T04:32:25;10.10;1.00
31975;DHT22;18500;43.618;1.474;2024-03-17T04:34:54;10.10;1.00
31975;DHT22;18500;43.618;1.474;2024-03-17T04:37:20;10.00;1.00
31975;DHT22;18500;43.618;1.474;2024-03-17T04:39:46;10.00;1.00
31975;DHT22;18500;43.618;1.474;2024-03-17T04:42:13;9.90;1.00
31975;DHT22;18500;43.618;1.474;2024-03-17T04:44:43;9.90;1.00
31975;DHT22;18500;43.618;1.474;2024-03-17T04:47:09;9.80;1.00
31975;DHT22;18500;43.618;1.474;2024-03-17T04:49:40;9.70;1.00
31975;DHT22;18500;43.618;1.474;2024-03-17T04:52:06;9.60;1.00
31975;DHT22;18500;43.618;1.474;2024-03-17T04:54:32;9.60;1.00
31975;DHT22;18500;43.618;1.474;2024-03-17T04:56:58;9.60;1.00
31975;DHT22;18500;43.618;1.474;2024-03-17T04:59:24;9.60;1.00
31975;DHT22;18500;43.618;1.474;2024-03-17T05:01:50;9.60;1.00
31975;DHT22;18500;43.618;1.474;2024-03-17T05:04:17;9.60;1.00
31975;DHT22;18500;43.618;1.474;2024-03-17T05:06:43;9.70;1.00
31975;DHT22;18500;43.618;1.474;2024-03-17T05:09:12;9.60;1.00
31975;DHT22;18500;43.618;1.474;2024-03-17T05:11:39;9.60;1.00
31975;DHT22;18500;43.618;1.474;2024-03-17T05:14:05;9.50;1.00
31975;DHT22;18500;43.618;1.474;2024-03-17T05:16:31;9.50;1.00
31975;DHT22;18500;43.618;1.474;2024-03-17T05:18:56;9.50;1.00
31975;DHT22;18500;43.618;1.474;2024-03-17T05:21:22;9.50;1.00
31975;DHT22;18500;43.618;1.474;2024-03-17T05:23:49;9.50;1.00
31975;DHT22;18500;43.618;1.474;2024-03-17T05:26:15;9.40;1.00
31975;DHT22;18500;43.618;1.474;2024-03-17T05:28:41;9.30;1.00
31975;DHT22;18500;43.618;1.474;2024-03-17T05:31:07;9.20;1.00
31975;DHT22;18500;43.618;1.474;2024-03-17T05:33:32;9.20;1.00
31975;DHT22;18500;43.618;1.474;2024-03-17T05:36:00;9.20;1.00
31975;DHT22;18500;43.618;1.474;2024-03-17T05:38:28;9.20;1.00
31975;DHT22;18500;43.618;1.474;2024-03-17T05:40:59;9.10;1.00
31975;DHT22;18500;43.618;1.474;2024-03-17T05:43:30;9.10;1.00
31975;DHT22;18500;43.618;1.474;2024-03-17T05:46:00;9.10;1.00
31975;DHT22;18500;43.618;1.474;2024-03-17T05:48:34;9.10;1.00
31975;DHT22;18500;43.618;1.474;2024-03-17T05:51:03;9.10;1.00
31975;DHT22;18500;43.618;1.474;2024-03-17T05:53:29;9.10;1.00
31975;DHT22;18500;43.618;1.474;2024-03-17T05:55:58;9.10;1.00
31975;DHT22;18500;43.618;1.474;2024-03-17T05:58:24;9.10;1.00
31975;DHT22;18500;43.618;1.474;2024-03-17T06:00:50;9.10;1.00
31975;DHT22;18500;43.618;1.474;2024-03-17T06:03:15;9.00;1.00
31975;DHT22;18500;43.618;1.474;2024-03-17T06:05:43;9.10;1.00
31975;DHT22;18500;43.618;1.474;2024-03-17T06:08:10;9.20;1.00
31975;DHT22;18500;43.618;1.474;2024-03-17T06:10:37;9.30;1.00
31975;DHT22;18500;43.618;1.474;2024-03-17T06:13:03;9.40;1.00
31975;DHT22;18500;43.618;1.474;2024-03-17T06:15:30;9.40;1.00
31975;DHT22;18500;43.618;1.474;2024-03-17T06:17:56;9.50;1.00
31975;DHT22;18500;43.618;1.474;2024-03-17T06:20:23;9.60;1.00
31975;DHT22;18500;43.618;1.474;2024-03-17T06:22:50;9.70;1.00
31975;DHT22;18500;43.618;1.474;2024-03-17T06:25:16;9.80;1.00
31975;DHT22;18500;43.618;1.474;2024-03-17T06:27:42;9.80;1.00
31975;DHT22;18500;43.618;1.474;2024-03-17T06:30:12;9.90;1.00
31975;DHT22;18500;43.618;1.474;2024-03-17T06:32:40;9.90;1.00
31975;DHT22;18500;43.618;1.474;2024-03-17T06:35:06;10.00;1.00
31975;DHT22;18500;43.618;1.474;2024-03-17T06:37:32;10.10;1.00
31975;DHT22;18500;43.618;1.474;2024-03-17T06:39:58;10.20;1.00
31975;DHT22;18500;43.618;1.474;2024-03-17T06:42:24;10.20;1.00
31975;DHT22;18500;43.618;1.474;2024-03-17T06:44:50;10.20;1.00
31975;DHT22;18500;43.618;1.474;2024-03-17T06:47:16;10.20;1.00
31975;DHT22;18500;43.618;1.474;2024-03-17T06:49:42;10.20;1.00
31975;DHT22;18500;43.618;1.474;2024-03-17T06:52:08;10.20;1.00
31975;DHT22;18500;43.618;1.474;2024-03-17T06:54:34;10.20;1.00
31975;DHT22;18500;43.618;1.474;2024-03-17T06:57:01;10.20;1.00
31975;DHT22;18500;43.618;1.474;2024-03-17T06:59:26;10.20;1.00
31975;DHT22;18500;43.618;1.474;2024-03-17T07:01:52;10.20;1.00
31975;DHT22;18500;43.618;1.474;2024-03-17T07:04:18;10.20;1.00
31975;DHT22;18500;43.618;1.474;2024-03-17T07:06:44;10.10;1.00
31975;DHT22;18500;43.618;1.474;2024-03-17T07:09:09;10.10;1.00
31975;DHT22;18500;43.618;1.474;2024-03-17T07:11:36;10.10;1.00
31975;DHT22;18500;43.618;1.474;2024-03-17T07:14:02;10.30;1.00
31975;DHT22;18500;43.618;1.474;2024-03-17T07:16:28;10.40;1.00
31975;DHT22;18500;43.618;1.474;2024-03-17T07:18:54;10.40;1.00
31975;DHT22;18500;43.618;1.474;2024-03-17T07:21:21;10.50;1.00
31975;DHT22;18500;43.618;1.474;2024-03-17T07:23:47;10.60;1.00
31975;DHT22;18500;43.618;1.474;2024-03-17T07:26:13;10.70;1.00
31975;DHT22;18500;43.618;1.474;2024-03-17T07:28:40;10.90;1.00
31975;DHT22;18500;43.618;1.474;2024-03-17T07:31:08;11.10;1.00
31975;DHT22;18500;43.618;1.474;2024-03-17T07:33:35;11.30;1.00
31975;DHT22;18500;43.618;1.474;2024-03-17T07:36:00;11.50;1.00
31975;DHT22;18500;43.618;1.474;2024-03-17T07:38:28;11.60;1.00
31975;DHT22;18500;43.618;1.474;2024-03-17T07:41:01;11.70;1.00
31975;DHT22;18500;43.618;1.474;2024-03-17T07:43:28;11.70;1.00
31975;DHT22;18500;43.618;1.474;2024-03-17T07:46:01;11.70;1.00
31975;DHT22;18500;43.618;1.474;2024-03-17T07:48:27;11.60;1.00
31975;DHT22;18500;43.618;1.474;2024-03-17T07:50:58;11.50;1.00
31975;DHT22;18500;43.618;1.474;2024-03-17T07:53:24;11.50;1.00
31975;DHT22;18500;43.618;1.474;2024-03-17T07:56:11;11.60;1.00
31975;DHT22;18500;43.618;1.474;2024-03-17T07:58:44;12.00;1.00
31975;DHT22;18500;43.618;1.474;2024-03-17T08:01:12;12.40;1.00
31975;DHT22;18500;43.618;1.474;2024-03-17T08:03:39;12.30;1.00
31975;DHT22;18500;43.618;1.474;2024-03-17T08:06:06;12.30;1.00
31975;DHT22;18500;43.618;1.474;2024-03-17T08:08:32;12.30;1.00
31975;DHT22;18500;43.618;1.474;2024-03-17T08:10:58;12.50;1.00
31975;DHT22;18500;43.618;1.474;2024-03-17T08:13:24;12.90;1.00
31975;DHT22;18500;43.618;1.474;2024-03-17T08:16:01;13.20;1.00
31975;DHT22;18500;43.618;1.474;2024-03-17T08:18:27;13.50;1.00
31975;DHT22;18500;43.618;1.474;2024-03-17T08:20:53;13.60;1.00
31975;DHT22;18500;43.618;1.474;2024-03-17T08:23:20;13.80;1.00
31975;DHT22;18500;43.618;1.474;2024-03-17T08:25:53;13.90;1.00
31975;DHT22;18500;43.618;1.474;2024-03-17T08:28:20;14.00;1.00
31975;DHT22;18500;43.618;1.474;2024-03-17T08:33:18;14.10;1.00
31975;DHT22;18500;43.618;1.474;2024-03-17T08:35:55;14.40;1.00
31975;DHT22;18500;43.618;1.474;2024-03-17T08:38:22;14.30;1.00
31975;DHT22;18500;43.618;1.474;2024-03-17T08:40:49;14.70;1.00
31975;DHT22;18500;43.618;1.474;2024-03-17T08:43:15;14.80;1.00
31975;DHT22;18500;43.618;1.474;2024-03-17T08:45:41;14.80;1.00
31975;DHT22;18500;43.618;1.474;2024-03-17T08:48:06;14.90;1.00
31975;DHT22;18500;43.618;1.474;2024-03-17T08:50:32;15.00;1.00
31975;DHT22;18500;43.618;1.474;2024-03-17T08:52:59;15.00;1.00
31975;DHT22;18500;43.618;1.474;2024-03-17T08:55:25;15.00;1.00
31975;DHT22;18500;43.618;1.474;2024-03-17T08:57:51;15.10;1.00
31975;DHT22;18500;43.618;1.474;2024-03-17T09:00:16;15.10;1.00
31975;DHT22;18500;43.618;1.474;2024-03-17T09:02:42;15.30;1.00
31975;DHT22;18500;43.618;1.474;2024-03-17T09:05:08;15.40;1.00
31975;DHT22;18500;43.618;1.474;2024-03-17T09:07:33;15.40;1.00
31975;DHT22;18500;43.618;1.474;2024-03-17T09:09:59;15.50;1.00
31975;DHT22;18500;43.618;1.474;2024-03-17T09:12:26;15.60;1.00
31975;DHT22;18500;43.618;1.474;2024-03-17T09:14:53;15.70;1.00
31975;DHT22;18500;43.618;1.474;2024-03-17T09:17:18;15.80;1.00
31975;DHT22;18500;43.618;1.474;2024-03-17T09:19:46;15.80;1.00
31975;DHT22;18500;43.618;1.474;2024-03-17T09:22:13;15.90;1.00
31975;DHT22;18500;43.618;1.474;2024-03-17T09:24:39;16.00;1.00
31975;DHT22;18500;43.618;1.474;2024-03-17T09:27:06;16.30;1.00
31975;DHT22;18500;43.618;1.474;2024-03-17T09:29:31;16.40;1.00
31975;DHT22;18500;43.618;1.474;2024-03-17T09:31:58;16.40;1.00
31975;DHT22;18500;43.618;1.474;2024-03-17T09:34:24;16.40;1.00
31975;DHT22;18500;43.618;1.474;2024-03-17T09:36:50;16.30;1.00
31975;DHT22;18500;43.618;1.474;2024-03-17T09:39:15;16.50;1.00
31975;DHT22;18500;43.618;1.474;2024-03-17T09:41:41;16.50;1.00
31975;DHT22;18500;43.618;1.474;2024-03-17T09:44:11;16.60;1.00
31975;DHT22;18500;43.618;1.474;2024-03-17T09:46:38;16.80;1.00
31975;DHT22;18500;43.618;1.474;2024-03-17T09:49:06;16.90;1.00
31975;DHT22;18500;43.618;1.474;2024-03-17T09:51:34;16.90;1.00
31975;DHT22;18500;43.618;1.474;2024-03-17T09:54:12;17.00;1.00
31975;DHT22;18500;43.618;1.474;2024-03-17T09:56:40;17.10;1.00
31975;DHT22;18500;43.618;1.474;2024-03-17T09:59:06;17.20;1.00
31975;DHT22;18500;43.618;1.474;2024-03-17T10:01:32;17.20;1.00
31975;DHT22;18500;43.618;1.474;2024-03-17T10:03:57;17.30;1.00
31975;DHT22;18500;43.618;1.474;2024-03-17T10:06:31;17.50;1.00
31975;DHT22;18500;43.618;1.474;2024-03-17T10:08:58;17.50;1.00
31975;DHT22;18500;43.618;1.474;2024-03-17T10:11:25;17.60;1.00
31975;DHT22;18500;43.618;1.474;2024-03-17T10:14:00;17.80;1.00
31975;DHT22;18500;43.618;1.474;2024-03-17T10:16:28;17.80;1.00
31975;DHT22;18500;43.618;1.474;2024-03-17T10:19:15;17.70;1.00
31975;DHT22;18500;43.618;1.474;2024-03-17T10:21:42;17.70;1.00
31975;DHT22;18500;43.618;1.474;2024-03-17T10:26:44;17.70;1.00
31975;DHT22;18500;43.618;1.474;2024-03-17T10:29:25;17.90;1.00
31975;DHT22;18500;43.618;1.474;2024-03-17T10:31:56;18.10;1.00
31975;DHT22;18500;43.618;1.474;2024-03-17T10:34:23;18.30;1.00
31975;DHT22;18500;43.618;1.474;2024-03-17T10:37:11;18.30;1.00
31975;DHT22;18500;43.618;1.474;2024-03-17T10:39:40;18.30;1.00
31975;DHT22;18500;43.618;1.474;2024-03-17T10:42:07;18.40;1.00
31975;DHT22;18500;43.618;1.474;2024-03-17T10:44:37;18.50;1.00
31975;DHT22;18500;43.618;1.474;2024-03-17T10:47:04;18.60;1.00
31975;DHT22;18500;43.618;1.474;2024-03-17T10:49:36;18.70;1.00
31975;DHT22;18500;43.618;1.474;2024-03-17T10:52:08;18.60;1.00
31975;DHT22;18500;43.618;1.474;2024-03-17T10:54:40;18.60;1.00
31975;DHT22;18500;43.618;1.474;2024-03-17T11:00:12;18.90;1.00
31975;DHT22;18500;43.618;1.474;2024-03-17T11:02:43;18.90;1.00
31975;DHT22;18500;43.618;1.474;2024-03-17T11:07:49;19.10;1.00
31975;DHT22;18500;43.618;1.474;2024-03-17T11:10:22;19.10;1.00
31975;DHT22;18500;43.618;1.474;2024-03-17T11:12:50;19.20;1.00
31975;DHT22;18500;43.618;1.474;2024-03-17T11:17:49;19.70;1.00
31975;DHT22;18500;43.618;1.474;2024-03-17T11:20:25;19.80;1.00
31975;DHT22;18500;43.618;1.474;2024-03-17T11:23:00;19.50;1.00
31975;DHT22;18500;43.618;1.474;2024-03-17T11:27:58;19.50;1.00
31975;DHT22;18500;43.618;1.474;2024-03-17T11:30:48;19.70;1.00
31975;DHT22;18500;43.618;1.474;2024-03-17T11:41:36;19.80;1.00
31975;DHT22;18500;43.618;1.474;2024-03-17T11:44:25;20.10;1.00
31975;DHT22;18500;43.618;1.474;2024-03-17T11:47:02;20.30;1.00
31975;DHT22;18500;43.618;1.474;2024-03-17T11:52:02;20.50;1.00
31975;DHT22;18500;43.618;1.474;2024-03-17T11:54:35;20.60;1.00
31975;DHT22;18500;43.618;1.474;2024-03-17T11:57:06;20.70;1.00
31975;DHT22;18500;43.618;1.474;2024-03-17T11:59:32;20.60;1.00
31975;DHT22;18500;43.618;1.474;2024-03-17T12:01:58;20.60;1.00
31975;DHT22;18500;43.618;1.474;2024-03-17T12:04:25;20.60;1.00
31975;DHT22;18500;43.618;1.474;2024-03-17T12:06:52;20.60;1.00
31975;DHT22;18500;43.618;1.474;2024-03-17T12:12:11;20.70;1.00
31975;DHT22;18500;43.618;1.474;2024-03-17T12:14:37;20.90;1.00
31975;DHT22;18500;43.618;1.474;2024-03-17T12:17:11;21.00;1.00
31975;DHT22;18500;43.618;1.474;2024-03-17T12:19:37;21.20;1.00
31975;DHT22;18500;43.618;1.474;2024-03-17T12:22:04;21.10;1.00
31975;DHT22;18500;43.618;1.474;2024-03-17T12:24:32;21.20;1.00
31975;DHT22;18500;43.618;1.474;2024-03-17T12:26:59;21.20;1.00
31975;DHT22;18500;43.618;1.474;2024-03-17T12:29:39;21.50;1.00
31975;DHT22;18500;43.618;1.474;2024-03-17T12:34:37;21.50;1.00
31975;DHT22;18500;43.618;1.474;2024-03-17T12:37:03;21.50;1.00
31975;DHT22;18500;43.618;1.474;2024-03-17T12:39:33;22.60;1.00
31975;DHT22;18500;43.618;1.474;2024-03-17T12:42:12;24.00;1.00
31975;DHT22;18500;43.618;1.474;2024-03-17T12:45:09;24.90;1.00
31975;DHT22;18500;43.618;1.474;2024-03-17T12:47:35;25.70;1.00
31975;DHT22;18500;43.618;1.474;2024-03-17T12:50:01;26.30;1.00
31975;DHT22;18500;43.618;1.474;2024-03-17T12:52:33;25.40;1.00
31975;DHT22;18500;43.618;1.474;2024-03-17T12:55:03;24.60;1.00
31975;DHT22;18500;43.618;1.474;2024-03-17T12:57:49;25.50;1.00
31975;DHT22;18500;43.618;1.474;2024-03-17T13:00:33;26.80;1.00
31975;DHT22;18500;43.618;1.474;2024-03-17T13:03:08;27.50;1.00
31975;DHT22;18500;43.618;1.474;2024-03-17T13:05:37;28.00;1.00
31975;DHT22;18500;43.618;1.474;2024-03-17T13:08:03;29.60;1.00
31975;DHT22;18500;43.618;1.474;2024-03-17T13:10:30;29.30;1.00
31975;DHT22;18500;43.618;1.474;2024-03-17T13:13:04;28.60;1.00
31975;DHT22;18500;43.618;1.474;2024-03-17T13:15:31;29.00;1.00
31975;DHT22;18500;43.618;1.474;2024-03-17T13:18:00;28.80;1.00
31975;DHT22;18500;43.618;1.474;2024-03-17T13:20:26;29.50;1.00
31975;DHT22;18500;43.618;1.474;2024-03-17T13:22:52;29.60;1.00
31975;DHT22;18500;43.618;1.474;2024-03-17T13:25:20;29.10;1.00
31975;DHT22;18500;43.618;1.474;2024-03-17T13:27:48;29.10;1.00
31975;DHT22;18500;43.618;1.474;2024-03-17T13:30:16;29.60;1.00
31975;DHT22;18500;43.618;1.474;2024-03-17T13:32:42;29.40;1.00
31975;DHT22;18500;43.618;1.474;2024-03-17T13:35:19;29.60;1.00
31975;DHT22;18500;43.618;1.474;2024-03-17T13:37:46;28.90;1.00
31975;DHT22;18500;43.618;1.474;2024-03-17T13:40:16;28.70;1.00
31975;DHT22;18500;43.618;1.474;2024-03-17T13:42:44;28.70;1.00
31975;DHT22;18500;43.618;1.474;2024-03-17T13:45:13;28.60;1.00
31975;DHT22;18500;43.618;1.474;2024-03-17T13:47:53;29.90;1.00
31975;DHT22;18500;43.618;1.474;2024-03-17T13:50:20;30.20;1.00
31975;DHT22;18500;43.618;1.474;2024-03-17T13:52:46;29.90;1.00
31975;DHT22;18500;43.618;1.474;2024-03-17T13:55:19;28.80;1.00
31975;DHT22;18500;43.618;1.474;2024-03-17T13:57:48;28.70;1.00
31975;DHT22;18500;43.618;1.474;2024-03-17T14:00:15;28.60;1.00
31975;DHT22;18500;43.618;1.474;2024-03-17T14:02:45;28.30;1.00
31975;DHT22;18500;43.618;1.474;2024-03-17T14:05:18;28.50;1.00
31975;DHT22;18500;43.618;1.474;2024-03-17T14:07:44;27.30;1.00
31975;DHT22;18500;43.618;1.474;2024-03-17T14:10:12;27.10;1.00
31975;DHT22;18500;43.618;1.474;2024-03-17T14:12:38;26.60;1.00
31975;DHT22;18500;43.618;1.474;2024-03-17T14:15:08;26.30;1.00
31975;DHT22;18500;43.618;1.474;2024-03-17T14:17:38;26.10;1.00
31975;DHT22;18500;43.618;1.474;2024-03-17T14:20:04;25.90;1.00
31975;DHT22;18500;43.618;1.474;2024-03-17T14:22:31;25.40;1.00
31975;DHT22;18500;43.618;1.474;2024-03-17T14:24:57;25.40;1.00
31975;DHT22;18500;43.618;1.474;2024-03-17T14:27:23;25.50;1.00
31975;DHT22;18500;43.618;1.474;2024-03-17T14:29:50;25.10;1.00
31975;DHT22;18500;43.618;1.474;2024-03-17T14:32:16;25.00;1.00
31975;DHT22;18500;43.618;1.474;2024-03-17T14:34:42;24.00;1.00
31975;DHT22;18500;43.618;1.474;2024-03-17T14:37:08;23.90;1.00
31975;DHT22;18500;43.618;1.474;2024-03-17T14:39:33;24.00;1.00
31975;DHT22;18500;43.618;1.474;2024-03-17T14:41:59;24.00;1.00
31975;DHT22;18500;43.618;1.474;2024-03-17T14:44:25;23.90;1.00
31975;DHT22;18500;43.618;1.474;2024-03-17T14:46:51;24.00;1.00
31975;DHT22;18500;43.618;1.474;2024-03-17T14:49:20;23.80;1.00
31975;DHT22;18500;43.618;1.474;2024-03-17T14:51:45;24.00;1.00
31975;DHT22;18500;43.618;1.474;2024-03-17T14:54:11;24.00;1.00
31975;DHT22;18500;43.618;1.474;2024-03-17T14:56:37;24.00;1.00
31975;DHT22;18500;43.618;1.474;2024-03-17T14:59:03;23.90;1.00
31975;DHT22;18500;43.618;1.474;2024-03-17T15:01:28;23.70;1.00
31975;DHT22;18500;43.618;1.474;2024-03-17T15:03:57;23.40;1.00
31975;DHT22;18500;43.618;1.474;2024-03-17T15:06:22;23.60;1.00
31975;DHT22;18500;43.618;1.474;2024-03-17T15:08:50;23.70;1.00
31975;DHT22;18500;43.618;1.474;2024-03-17T15:11:15;23.50;1.00
31975;DHT22;18500;43.618;1.474;2024-03-17T15:13:43;23.60;1.00
31975;DHT22;18500;43.618;1.474;2024-03-17T15:16:09;23.80;1.00
31975;DHT22;18500;43.618;1.474;2024-03-17T15:18:35;23.70;1.00
31975;DHT22;18500;43.618;1.474;2024-03-17T15:21:02;23.50;1.00
31975;DHT22;18500;43.618;1.474;2024-03-17T15:23:31;23.50;1.00
31975;DHT22;18500;43.618;1.474;2024-03-17T15:26:03;23.60;1.00
31975;DHT22;18500;43.618;1.474;2024-03-17T15:28:39;23.60;1.00
31975;DHT22;18500;43.618;1.474;2024-03-17T15:31:05;23.60;1.00
31975;DHT22;18500;43.618;1.474;2024-03-17T15:33:32;23.20;1.00
31975;DHT22;18500;43.618;1.474;2024-03-17T15:36:03;22.90;1.00
31975;DHT22;18500;43.618;1.474;2024-03-17T15:38:30;22.70;1.00
31975;DHT22;18500;43.618;1.474;2024-03-17T15:41:07;22.80;1.00
31975;DHT22;18500;43.618;1.474;2024-03-17T15:43:39;22.90;1.00
31975;DHT22;18500;43.618;1.474;2024-03-17T15:46:15;22.90;1.00
31975;DHT22;18500;43.618;1.474;2024-03-17T15:48:41;23.00;1.00
31975;DHT22;18500;43.618;1.474;2024-03-17T15:51:07;22.90;1.00
31975;DHT22;18500;43.618;1.474;2024-03-17T15:53:33;22.90;1.00
31975;DHT22;18500;43.618;1.474;2024-03-17T15:56:02;22.90;1.00
31975;DHT22;18500;43.618;1.474;2024-03-17T15:58:30;22.80;1.00
31975;DHT22;18500;43.618;1.474;2024-03-17T16:00:56;22.70;1.00
31975;DHT22;18500;43.618;1.474;2024-03-17T16:03:29;22.60;1.00
31975;DHT22;18500;43.618;1.474;2024-03-17T16:05:59;22.50;1.00
31975;DHT22;18500;43.618;1.474;2024-03-17T16:08:25;22.40;1.00
31975;DHT22;18500;43.618;1.474;2024-03-17T16:10:57;22.40;1.00
31975;DHT22;18500;43.618;1.474;2024-03-17T16:13:26;22.40;1.00
31975;DHT22;18500;43.618;1.474;2024-03-17T16:15:54;22.30;1.00
31975;DHT22;18500;43.618;1.474;2024-03-17T16:18:22;22.30;1.00
31975;DHT22;18500;43.618;1.474;2024-03-17T16:23:43;22.30;1.00
31975;DHT22;18500;43.618;1.474;2024-03-17T16:26:11;22.20;1.00
31975;DHT22;18500;43.618;1.474;2024-03-17T16:28:37;22.10;1.00